Time;durP1;ratioP1;P1;durP2;ratioP2;P2;SDS_P1;SDS_P2;PMS_P1;PMS_P2;Temp;Humidity;BMP_temperature;BMP_pressure;BME280_temperature;BME280_humidity;BME280_pressure;Samples;Min_cycle;Max_cycle;Signal;HPM_P1;HPM_P2
2022/10/24 00:01:12;;;;;;;7.93;4.80;;;15.20;40.90;;;;;;5097297;28;20471;-65
2022/10/24 00:03:39;;;;;;;8.80;4.07;;;15.10;99.90;;;;;;5097065;28;20460;-64
2022/10/24 00:06:11;;;;;;;13.87;5.63;;;15.10;99.90;;;;;;5096427;28;20461;-64
2022/10/24 00:08:39;;;;;;;17.23;5.03;;;15.30;1.00;;;;;;5096759;28;20474;-65
2022/10/24 00:11:09;;;;;;;18.70;5.30;;;15.30;99.90;;;;;;5097263;28;20469;-64
2022/10/24 00:13:44;;;;;;;10.63;5.20;;;15.30;99.90;;;;;;5096691;28;20431;-65
2022/10/24 00:16:13;;;;;;;8.60;3.43;;;15.30;99.90;;;;;;5096794;28;20492;-65
2022/10/24 00:18:40;;;;;;;11.37;4.80;;;15.30;99.90;;;;;;5082230;28;20575;-65
2022/10/24 00:21:08;;;;;;;11.80;4.90;;;15.30;53.80;;;;;;5076891;28;20472;-66
2022/10/24 00:23:37;;;;;;;8.77;4.67;;;15.20;1.00;;;;;;5077031;28;20461;-64
2022/10/24 00:26:07;;;;;;;9.53;4.90;;;15.30;1.00;;;;;;5076477;28;20442;-64
2022/10/24 00:28:35;;;;;;;7.77;4.30;;;15.30;1.00;;;;;;5076497;28;20468;-64
2022/10/24 00:31:03;;;;;;;9.37;4.53;;;15.20;1.00;;;;;;5076649;28;20457;-64
2022/10/24 00:33:33;;;;;;;11.23;4.83;;;15.30;1.00;;;;;;5080695;28;20443;-64
2022/10/24 00:36:02;;;;;;;9.70;4.43;;;15.20;1.00;;;;;;5080438;28;20595;-64
2022/10/24 00:38:30;;;;;;;9.27;5.00;;;15.30;99.90;;;;;;5080930;28;20465;-64
2022/10/24 00:40:57;;;;;;;8.83;4.07;;;15.30;99.90;;;;;;5094867;28;20456;-65
2022/10/24 00:43:26;;;;;;;10.30;4.37;;;15.30;99.90;;;;;;5101087;28;20467;-64
2022/10/24 00:45:55;;;;;;;10.67;4.67;;;15.30;99.90;;;;;;5100531;28;20456;-66
2022/10/24 00:48:27;;;;;;;8.20;4.60;;;15.30;99.90;;;;;;5100778;28;20755;-65
2022/10/24 00:50:59;;;;;;;6.40;3.93;;;15.30;99.90;;;;;;5100904;28;20460;-65
2022/10/24 00:53:26;;;;;;;8.13;5.27;;;15.30;99.90;;;;;;5100249;28;20461;-65
2022/10/24 00:55:58;;;;;;;9.00;4.63;;;15.40;99.90;;;;;;5100506;28;20787;-65
2022/10/24 00:58:27;;;;;;;9.60;4.27;;;15.40;91.90;;;;;;5100570;28;20559;-64
2022/10/24 01:00:55;;;;;;;8.50;4.50;;;15.50;1.00;;;;;;5100559;28;20457;-64
2022/10/24 01:03:23;;;;;;;6.70;3.63;;;15.60;1.00;;;;;;5100732;28;20759;-67
2022/10/24 01:06:10;;;;;;;7.40;3.67;;;15.70;1.00;;;;;;5100027;28;20467;-65
2022/10/24 01:08:44;;;;;;;8.17;3.83;;;15.70;1.00;;;;;;5100102;28;20487;-65
2022/10/24 01:11:27;;;;;;;11.50;4.10;;;15.80;1.00;;;;;;5100061;28;20471;-64
2022/10/24 01:14:03;;;;;;;7.53;3.30;;;15.80;1.00;;;;;;5099996;28;20452;-64
2022/10/24 01:16:37;;;;;;;6.63;3.57;;;15.80;1.00;;;;;;5100489;28;20491;-65
2022/10/24 01:19:20;;;;;;;12.67;3.87;;;15.70;1.00;;;;;;5100481;28;20441;-65
2022/10/24 01:21:53;;;;;;;8.47;3.90;;;15.60;1.00;;;;;;5099761;28;20491;-64
2022/10/24 01:24:40;;;;;;;6.47;3.60;;;15.60;1.00;;;;;;5099988;28;20438;-65
2022/10/24 01:27:47;;;;;;;6.93;3.60;;;15.60;1.00;;;;;;5100163;28;20790;-66
2022/10/24 01:30:17;;;;;;;10.63;4.50;;;15.60;1.00;;;;;;5096710;28;20427;-65
2022/10/24 01:32:53;;;;;;;9.67;3.63;;;15.60;1.00;;;;;;5100233;28;20464;-65
2022/10/24 01:35:39;;;;;;;7.63;3.83;;;15.60;1.00;;;;;;5099917;28;20993;-66
2022/10/24 01:38:16;;;;;;;8.77;4.17;;;15.60;1.00;;;;;;5099558;28;20434;-65
2022/10/24 01:40:51;;;;;;;8.33;3.70;;;15.50;1.00;;;;;;5100011;28;20462;-65
2022/10/24 01:46:46;;;;;;;11.00;4.43;;;15.50;1.00;;;;;;5099196;28;20420;-65
2022/10/24 01:49:17;;;;;;;12.87;3.90;;;15.40;1.00;;;;;;5099701;28;20892;-65
2022/10/24 01:51:47;;;;;;;10.40;4.53;;;15.40;1.00;;;;;;5099544;28;20482;-65
2022/10/24 01:54:15;;;;;;;6.80;3.87;;;15.30;1.00;;;;;;5099489;28;20977;-64
2022/10/24 01:56:43;;;;;;;7.33;4.30;;;15.40;1.00;;;;;;5099213;28;20467;-65
2022/10/24 01:59:43;;;;;;;12.97;4.40;;;15.40;1.00;;;;;;5099242;28;20568;-64
2022/10/24 02:02:17;;;;;;;7.50;4.33;;;15.40;1.00;;;;;;5099230;28;20887;-64
2022/10/24 02:04:50;;;;;;;10.50;4.33;;;15.40;1.00;;;;;;5099475;28;20702;-64
2022/10/24 02:07:19;;;;;;;5.10;3.70;;;15.30;1.00;;;;;;5098869;28;20494;-64
2022/10/24 02:09:51;;;;;;;9.80;4.27;;;15.30;1.00;;;;;;5099080;28;20456;-64
2022/10/24 02:12:21;;;;;;;11.30;4.97;;;15.30;1.00;;;;;;5099330;28;20503;-64
2022/10/24 02:14:53;;;;;;;6.50;4.23;;;15.30;1.00;;;;;;5098986;28;20466;-64
2022/10/24 02:17:22;;;;;;;8.40;4.30;;;15.30;1.00;;;;;;5099487;28;20483;-65
2022/10/24 02:19:50;;;;;;;6.63;3.83;;;15.30;1.00;;;;;;5098641;28;20461;-65
2022/10/24 02:22:26;;;;;;;9.13;4.13;;;15.30;1.00;;;;;;5098655;28;20499;-64
2022/10/24 02:24:57;;;;;;;5.13;3.50;;;15.20;1.00;;;;;;5099224;28;20869;-65
2022/10/24 02:27:32;;;;;;;8.37;4.23;;;15.20;1.00;;;;;;5099006;28;20463;-64
2022/10/24 02:30:03;;;;;;;9.60;4.20;;;15.30;1.00;;;;;;5098897;28;20462;-65
2022/10/24 02:32:34;;;;;;;9.07;4.13;;;15.30;1.00;;;;;;5099013;28;20434;-65
2022/10/24 02:35:03;;;;;;;6.97;3.83;;;15.30;1.00;;;;;;5098614;28;20463;-65
2022/10/24 02:37:32;;;;;;;6.67;4.13;;;15.30;1.00;;;;;;5097743;28;20463;-65
2022/10/24 02:40:06;;;;;;;10.33;4.70;;;15.30;1.00;;;;;;5098477;28;20474;-65
2022/10/24 02:42:35;;;;;;;7.00;4.37;;;15.30;1.00;;;;;;5097691;28;20453;-64
2022/10/24 02:45:11;;;;;;;12.93;4.00;;;15.30;1.00;;;;;;5098427;28;20464;-65
2022/10/24 02:47:41;;;;;;;10.93;4.37;;;15.30;1.00;;;;;;5098485;28;20456;-64
2022/10/24 02:50:10;;;;;;;8.37;3.70;;;15.40;1.00;;;;;;5098678;28;20471;-65
2022/10/24 02:52:38;;;;;;;6.57;3.87;;;15.30;1.00;;;;;;5098349;28;20800;-64
2022/10/24 02:55:07;;;;;;;6.83;4.50;;;15.40;1.00;;;;;;5097655;28;20474;-65
2022/10/24 02:57:34;;;;;;;8.00;3.63;;;15.50;1.00;;;;;;5097978;28;20456;-64
2022/10/24 03:00:01;;;;;;;10.60;4.10;;;15.40;1.00;;;;;;5098481;28;20456;-65
2022/10/24 03:02:28;;;;;;;9.13;3.37;;;15.50;1.00;;;;;;5098115;28;20461;-65
2022/10/24 03:04:57;;;;;;;8.13;4.00;;;15.50;1.00;;;;;;5098007;28;20456;-65
2022/10/24 03:07:24;;;;;;;9.07;3.93;;;15.50;1.00;;;;;;5096104;28;20499;-65
2022/10/24 03:09:51;;;;;;;7.70;4.20;;;15.50;1.00;;;;;;5096283;28;20463;-65
2022/10/24 03:12:19;;;;;;;6.90;3.60;;;15.50;1.00;;;;;;5095673;28;20763;-65
2022/10/24 03:14:46;;;;;;;11.20;4.00;;;15.40;1.00;;;;;;5095995;28;20560;-66
2022/10/24 03:17:13;;;;;;;6.63;3.57;;;15.50;1.00;;;;;;5096424;28;20503;-66
2022/10/24 03:19:41;;;;;;;7.70;3.83;;;15.50;1.00;;;;;;5097361;28;20457;-66
2022/10/24 03:22:09;;;;;;;10.03;4.10;;;15.50;1.00;;;;;;5097267;28;20438;-66
2022/10/24 03:24:37;;;;;;;5.97;3.83;;;15.50;1.00;;;;;;5097847;28;20467;-66
2022/10/24 03:27:04;;;;;;;7.67;4.07;;;15.50;1.00;;;;;;5097473;28;20468;-66
2022/10/24 03:29:31;;;;;;;9.47;3.50;;;15.50;1.00;;;;;;5094379;28;20546;-66
2022/10/24 03:31:58;;;;;;;11.03;3.93;;;15.50;1.00;;;;;;5097141;28;20460;-66
2022/10/24 03:34:27;;;;;;;6.87;4.30;;;15.50;1.00;;;;;;5097530;28;20457;-66
2022/10/24 03:36:55;;;;;;;9.63;3.80;;;15.50;1.00;;;;;;5097492;28;20932;-66
2022/10/24 03:39:23;;;;;;;6.60;3.53;;;15.50;1.00;;;;;;5097467;28;20463;-67
2022/10/24 03:41:51;;;;;;;9.77;3.83;;;15.50;1.00;;;;;;5096858;28;20567;-67
2022/10/24 03:44:18;;;;;;;8.50;3.90;;;15.60;1.00;;;;;;5097216;28;20701;-68
2022/10/24 03:46:45;;;;;;;13.70;3.90;;;15.50;1.00;;;;;;5097165;28;20474;-68
2022/10/24 03:49:15;;;;;;;7.30;3.37;;;15.50;1.00;;;;;;5097089;28;20908;-67
2022/10/24 03:51:42;;;;;;;6.93;4.20;;;15.40;1.00;;;;;;5096816;28;20533;-68
2022/10/24 03:54:10;;;;;;;8.23;4.20;;;15.40;1.00;;;;;;5097331;28;20460;-68
2022/10/24 03:56:39;;;;;;;7.33;3.83;;;15.40;1.00;;;;;;5097084;28;20463;-67
2022/10/24 03:59:06;;;;;;;8.43;3.40;;;15.40;1.00;;;;;;5097138;28;20435;-67
2022/10/24 04:01:37;;;;;;;9.57;3.40;;;15.40;1.00;;;;;;5097557;28;20456;-68
2022/10/24 04:04:05;;;;;;;9.50;3.80;;;15.30;1.00;;;;;;5097188;28;20522;-68
2022/10/24 04:06:32;;;;;;;8.60;3.63;;;15.30;1.00;;;;;;5097385;28;20463;-68
2022/10/24 04:08:59;;;;;;;8.80;3.77;;;15.30;1.00;;;;;;5096845;28;20594;-68
2022/10/24 04:11:27;;;;;;;9.60;3.80;;;15.30;1.00;;;;;;5096830;28;20541;-68
2022/10/24 04:13:55;;;;;;;8.80;3.67;;;15.30;1.00;;;;;;5096144;28;20562;-68
2022/10/24 04:16:22;;;;;;;9.23;3.60;;;15.30;1.00;;;;;;5096963;28;20776;-69
2022/10/24 04:18:50;;;;;;;7.77;3.27;;;15.30;1.00;;;;;;5097055;28;20460;-67
2022/10/24 04:21:18;;;;;;;6.70;4.03;;;15.30;1.00;;;;;;5089050;28;20481;-69
2022/10/24 04:23:46;;;;;;;9.60;3.60;;;15.30;1.00;;;;;;5076703;28;20436;-68
2022/10/24 04:26:16;;;;;;;8.63;3.67;;;15.30;1.00;;;;;;5076193;28;20461;-69
2022/10/24 04:28:45;;;;;;;7.40;4.00;;;15.30;1.00;;;;;;5077142;28;20472;-68
2022/10/24 04:31:17;;;;;;;8.10;3.90;;;15.30;1.00;;;;;;5076793;28;20440;-69
2022/10/24 04:33:44;;;;;;;13.50;4.50;;;15.30;1.00;;;;;;5076780;28;20458;-69
2022/10/24 04:36:12;;;;;;;12.53;3.80;;;15.20;1.00;;;;;;5076662;28;20485;-68
2022/10/24 04:38:39;;;;;;;6.13;3.33;;;15.30;1.00;;;;;;5076171;28;20563;-69
2022/10/24 04:41:06;;;;;;;10.67;4.20;;;15.30;1.00;;;;;;5076700;28;20436;-69
2022/10/24 04:43:35;;;;;;;8.23;3.90;;;15.30;1.00;;;;;;5087553;28;20452;-68
2022/10/24 04:46:05;;;;;;;7.67;3.47;;;15.30;1.00;;;;;;5096984;28;20466;-70
2022/10/24 04:48:34;;;;;;;7.53;3.20;;;15.30;1.00;;;;;;5096916;28;20464;-69
2022/10/24 04:51:02;;;;;;;11.43;3.70;;;15.30;1.00;;;;;;5096792;28;20460;-69
2022/10/24 04:53:29;;;;;;;6.70;3.97;;;15.30;1.00;;;;;;5096540;28;20461;-69
2022/10/24 04:55:57;;;;;;;8.23;3.80;;;15.30;1.00;;;;;;5096317;28;20467;-69
2022/10/24 04:58:24;;;;;;;5.90;3.63;;;15.30;1.00;;;;;;5096451;28;20923;-69
2022/10/24 05:00:52;;;;;;;7.93;3.80;;;15.30;1.00;;;;;;5095689;28;20446;-69
2022/10/24 05:03:21;;;;;;;7.30;3.23;;;15.30;1.00;;;;;;5096672;28;20439;-69
2022/10/24 05:05:49;;;;;;;11.77;4.07;;;15.30;1.00;;;;;;5096639;28;20461;-70
2022/10/24 05:08:17;;;;;;;5.93;3.87;;;15.30;1.00;;;;;;5096607;28;20527;-70
2022/10/24 05:10:44;;;;;;;7.30;3.40;;;15.30;1.00;;;;;;5096464;28;20869;-71
2022/10/24 05:13:12;;;;;;;6.70;3.40;;;15.30;1.00;;;;;;5096002;28;20460;-70
2022/10/24 05:15:39;;;;;;;8.60;3.77;;;15.30;1.00;;;;;;5095877;28;20467;-69
2022/10/24 05:18:06;;;;;;;11.83;4.07;;;15.30;1.00;;;;;;5095536;28;20494;-69
2022/10/24 05:20:36;;;;;;;5.53;3.37;;;15.30;1.00;;;;;;5099353;28;20459;-70
2022/10/24 05:23:05;;;;;;;9.33;3.30;;;15.30;1.00;;;;;;5099020;28;20510;-70
2022/10/24 05:25:33;;;;;;;9.00;3.20;;;15.30;1.00;;;;;;5097595;28;20462;-69
2022/10/24 05:28:03;;;;;;;7.53;3.37;;;15.40;99.90;;;;;;5098457;28;20453;-70
2022/10/24 05:30:33;;;;;;;4.90;3.50;;;15.40;99.90;;;;;;5099086;28;20881;-68
2022/10/24 05:33:00;;;;;;;9.10;3.57;;;15.40;99.90;;;;;;5099444;28;20461;-69
2022/10/24 05:35:27;;;;;;;5.80;2.77;;;15.50;99.90;;;;;;5097092;28;20430;-69
2022/10/24 05:37:54;;;;;;;5.97;3.30;;;15.50;99.90;;;;;;5093029;28;20461;-69
2022/10/24 05:40:23;;;;;;;4.63;2.47;;;15.40;99.90;;;;;;5096999;28;20465;-68
2022/10/24 05:42:51;;;;;;;7.30;3.40;;;15.50;99.90;;;;;;5097580;28;20482;-69
2022/10/24 05:45:19;;;;;;;8.43;2.47;;;15.40;99.90;;;;;;5098580;28;20466;-70
2022/10/24 05:47:46;;;;;;;4.63;2.17;;;15.40;99.90;;;;;;5097909;28;20457;-70
2022/10/24 05:50:14;;;;;;;6.50;2.97;;;15.40;99.90;;;;;;5095674;28;20914;-68
2022/10/24 05:52:42;;;;;;;5.73;2.17;;;15.50;99.90;;;;;;5095843;28;20759;-70
2022/10/24 05:55:10;;;;;;;7.30;3.03;;;15.60;99.90;;;;;;5096648;28;20467;-67
2022/10/24 05:57:40;;;;;;;6.70;2.43;;;15.70;99.90;;;;;;5095764;28;20484;-67
2022/10/24 06:00:13;;;;;;;5.77;2.70;;;15.70;99.90;;;;;;5097011;28;20464;-68
2022/10/24 06:02:42;;;;;;;3.90;2.00;;;15.60;99.90;;;;;;5098295;28;20503;-66
2022/10/24 06:05:12;;;;;;;4.83;2.43;;;15.60;99.90;;;;;;5099070;28;20481;-67
2022/10/24 06:07:40;;;;;;;5.53;2.67;;;15.60;99.90;;;;;;5098063;28;20476;-68
2022/10/24 06:10:10;;;;;;;4.20;2.53;;;15.70;99.90;;;;;;5097951;28;20446;-68
2022/10/24 06:12:37;;;;;;;7.53;2.80;;;15.60;99.90;;;;;;5097804;28;20977;-68
2022/10/24 06:15:09;;;;;;;7.03;2.93;;;15.70;99.90;;;;;;5098521;28;20558;-68
2022/10/24 06:17:37;;;;;;;4.67;2.67;;;15.60;99.90;;;;;;5098367;28;20870;-67
2022/10/24 06:20:05;;;;;;;3.40;2.10;;;15.60;99.90;;;;;;5098796;28;20439;-68
2022/10/24 06:22:35;;;;;;;4.90;2.40;;;15.60;99.90;;;;;;5097901;28;20460;-67
2022/10/24 06:25:02;;;;;;;5.97;2.97;;;15.60;99.90;;;;;;5099430;28;20467;-68
2022/10/24 06:27:29;;;;;;;4.00;2.50;;;15.60;99.90;;;;;;5098729;28;20492;-67
2022/10/24 06:29:56;;;;;;;4.50;2.60;;;15.60;99.90;;;;;;5097732;28;20505;-70
2022/10/24 06:32:25;;;;;;;3.20;2.40;;;15.50;99.90;;;;;;5098583;28;20896;-67
2022/10/24 06:35:02;;;;;;;7.10;2.60;;;15.50;99.90;;;;;;5097614;28;20460;-67
2022/10/24 06:37:29;;;;;;;4.87;2.87;;;15.60;99.90;;;;;;5098933;28;20503;-66
2022/10/24 06:39:56;;;;;;;7.97;2.77;;;15.50;99.90;;;;;;5094397;28;20452;-68
2022/10/24 06:42:24;;;;;;;3.50;2.13;;;15.60;99.90;;;;;;5094139;28;20927;-68
2022/10/24 06:44:51;;;;;;;5.43;3.07;;;15.60;99.90;;;;;;5095677;28;20992;-67
2022/10/24 06:47:21;;;;;;;6.37;2.10;;;15.60;99.90;;;;;;5090779;28;20452;-66
2022/10/24 06:49:50;;;;;;;9.00;2.20;;;15.60;99.90;;;;;;5096055;28;20563;-66
2022/10/24 06:52:23;;;;;;;6.33;2.90;;;15.70;99.90;;;;;;5097111;28;20907;-67
2022/10/24 06:54:50;;;;;;;9.27;2.70;;;15.70;99.90;;;;;;5097265;28;20555;-67
2022/10/24 06:57:17;;;;;;;5.33;2.80;;;15.70;99.90;;;;;;5097318;28;20518;-68
2022/10/24 06:59:45;;;;;;;4.27;2.53;;;15.70;99.90;;;;;;5097469;28;20464;-64
2022/10/24 07:02:14;;;;;;;4.57;2.33;;;15.70;99.90;;;;;;5097853;28;20922;-64
2022/10/24 07:04:41;;;;;;;9.00;2.10;;;15.70;99.90;;;;;;5097938;28;20771;-64
2022/10/24 07:07:15;;;;;;;4.53;2.50;;;15.80;99.90;;;;;;5097629;28;20494;-66
2022/10/24 07:09:43;;;;;;;5.47;2.63;;;15.80;99.90;;;;;;5097634;28;20514;-66
2022/10/24 07:12:10;;;;;;;5.50;3.03;;;15.90;99.90;;;;;;5097088;28;20838;-65
2022/10/24 07:14:37;;;;;;;9.97;2.90;;;15.90;99.90;;;;;;5097572;28;20456;-65
2022/10/24 07:17:07;;;;;;;4.33;2.47;;;15.90;99.90;;;;;;5091782;28;20534;-65
2022/10/24 07:19:35;;;;;;;5.33;2.47;;;15.90;99.90;;;;;;5097436;28;20467;-65
2022/10/24 07:22:02;;;;;;;4.73;2.57;;;15.90;99.90;;;;;;5097426;28;20431;-64
2022/10/24 07:24:31;;;;;;;8.17;2.77;;;16.00;99.90;;;;;;5097402;28;20460;-64
2022/10/24 07:26:58;;;;;;;5.90;2.97;;;16.00;99.90;;;;;;5098216;28;20453;-65
2022/10/24 07:29:26;;;;;;;2.63;1.97;;;16.20;99.90;;;;;;5097108;28;20547;-65
2022/10/24 07:31:53;;;;;;;5.77;2.53;;;16.30;99.90;;;;;;5094522;28;20514;-64
2022/10/24 07:34:21;;;;;;;8.37;2.97;;;16.30;99.90;;;;;;5096128;28;20460;-63
2022/10/24 07:36:48;;;;;;;6.27;2.73;;;16.40;99.90;;;;;;5094299;28;20567;-65
2022/10/24 07:39:15;;;;;;;5.53;2.30;;;16.50;99.90;;;;;;5094905;28;20547;-64
2022/10/24 07:41:48;;;;;;;6.70;2.80;;;16.60;99.90;;;;;;5095274;28;20456;-64
2022/10/24 07:44:15;;;;;;;5.80;2.70;;;16.70;99.90;;;;;;5095282;28;20507;-64
2022/10/24 07:46:42;;;;;;;4.27;2.27;;;16.90;99.90;;;;;;5095494;28;20557;-64
2022/10/24 07:49:10;;;;;;;5.43;2.80;;;17.00;99.90;;;;;;5093143;28;20456;-64
2022/10/24 07:51:37;;;;;;;3.80;2.30;;;17.10;99.90;;;;;;5091969;28;20439;-63
2022/10/24 07:54:04;;;;;;;5.60;2.53;;;17.20;99.90;;;;;;5094987;28;20773;-64
2022/10/24 07:56:32;;;;;;;6.13;2.87;;;17.40;99.90;;;;;;5093639;28;20460;-63
2022/10/24 07:59:02;;;;;;;3.90;2.77;;;17.50;99.90;;;;;;5096499;28;20964;-65
2022/10/24 08:01:32;;;;;;;3.77;2.30;;;17.60;99.90;;;;;;5095995;28;20456;-66
2022/10/24 08:03:59;;;;;;;6.13;2.57;;;17.70;99.90;;;;;;5095201;28;20903;-64
2022/10/24 08:06:30;;;;;;;9.53;3.00;;;17.50;99.90;;;;;;5094888;28;20442;-66
2022/10/24 08:08:57;;;;;;;5.33;2.60;;;17.50;99.90;;;;;;5052554;28;20429;-65
2022/10/24 08:11:27;;;;;;;6.77;2.20;;;17.50;99.90;;;;;;5055078;28;20841;-63
2022/10/24 08:13:56;;;;;;;5.13;2.20;;;17.40;99.90;;;;;;5054413;28;20454;-64
2022/10/24 08:16:28;;;;;;;8.63;2.70;;;17.40;99.90;;;;;;5054096;28;20520;-64
2022/10/24 08:18:57;;;;;;;5.47;2.60;;;17.30;99.90;;;;;;5054095;28;20469;-64
2022/10/24 08:21:25;;;;;;;4.53;2.00;;;17.50;99.90;;;;;;5053883;28;20557;-63
2022/10/24 08:23:54;;;;;;;10.10;2.33;;;17.50;99.90;;;;;;5053613;28;20527;-63
2022/10/24 08:26:23;;;;;;;7.67;2.80;;;17.60;99.90;;;;;;5054924;28;20528;-63
2022/10/24 08:28:50;;;;;;;6.13;2.87;;;17.70;99.90;;;;;;5055455;28;20482;-63
2022/10/24 08:31:19;;;;;;;4.93;2.10;;;17.70;99.90;;;;;;5055700;28;20845;-64
2022/10/24 08:33:48;;;;;;;4.87;2.07;;;17.70;99.90;;;;;;5055394;28;20440;-64
2022/10/24 08:36:22;;;;;;;5.37;2.30;;;17.70;99.90;;;;;;5053006;28;20429;-63
2022/10/24 08:38:49;;;;;;;3.50;2.70;;;17.60;99.90;;;;;;5052778;28;20596;-64
2022/10/24 08:41:24;;;;;;;5.60;2.57;;;17.60;99.90;;;;;;5054625;28;20785;-63
2022/10/24 08:43:52;;;;;;;3.10;2.00;;;17.60;99.90;;;;;;5055471;28;20916;-64
2022/10/24 08:46:39;;;;;;;5.63;2.80;;;17.60;99.90;;;;;;5055324;28;20494;-64
2022/10/24 08:49:21;;;;;;;4.80;2.40;;;17.50;99.90;;;;;;5054192;28;20847;-64
2022/10/24 08:51:53;;;;;;;5.20;2.40;;;17.40;99.90;;;;;;5053314;28;20766;-63
2022/10/24 08:54:25;;;;;;;6.63;2.67;;;17.30;99.90;;;;;;5055514;28;20469;-64
2022/10/24 08:56:54;;;;;;;6.60;2.30;;;17.10;99.90;;;;;;5057764;28;20880;-64
2022/10/24 08:59:21;;;;;;;5.30;2.57;;;17.10;99.90;;;;;;5058462;28;20469;-65
2022/10/24 09:01:52;;;;;;;6.63;2.20;;;16.90;99.90;;;;;;5057099;28;20458;-63
2022/10/24 09:04:30;;;;;;;5.67;2.20;;;16.80;99.90;;;;;;5056358;28;20858;-64
2022/10/24 09:06:57;;;;;;;4.83;2.23;;;16.90;99.90;;;;;;5066558;28;20492;-63
2022/10/24 09:09:30;;;;;;;5.60;2.97;;;16.90;99.90;;;;;;5099492;28;20555;-63
2022/10/24 09:12:01;;;;;;;4.87;2.80;;;17.20;99.90;;;;;;5099525;28;20472;-63
2022/10/24 09:14:32;;;;;;;6.13;3.10;;;17.30;99.90;;;;;;5099774;28;20572;-63
2022/10/24 09:17:02;;;;;;;6.60;2.50;;;17.40;99.90;;;;;;5098611;28;20464;-63
2022/10/24 09:19:32;;;;;;;5.93;3.37;;;17.70;99.90;;;;;;5100116;28;20476;-64
2022/10/24 09:22:02;;;;;;;10.20;2.90;;;17.90;99.90;;;;;;5098756;28;20566;-63
2022/10/24 09:24:39;;;;;;;5.57;2.40;;;17.90;99.90;;;;;;5098172;28;20468;-63
2022/10/24 09:27:14;;;;;;;6.27;2.80;;;17.90;99.90;;;;;;5096466;28;20466;-64
2022/10/24 09:29:41;;;;;;;5.80;2.90;;;17.80;99.90;;;;;;5096078;28;20446;-63
2022/10/24 09:32:16;;;;;;;10.53;3.27;;;17.60;99.90;;;;;;5098212;28;20448;-64
2022/10/24 09:34:48;;;;;;;6.53;2.70;;;17.50;99.90;;;;;;5094906;28;20873;-64
2022/10/24 09:37:36;;;;;;;3.90;2.17;;;17.50;99.90;;;;;;5096436;28;20764;-64
2022/10/24 09:40:09;;;;;;;6.40;2.73;;;17.60;99.90;;;;;;5095850;28;20478;-63
2022/10/24 09:42:38;;;;;;;4.57;2.43;;;17.60;99.90;;;;;;5097906;28;20464;-64
2022/10/24 09:45:21;;;;;;;3.80;2.53;;;17.60;99.90;;;;;;5098224;28;20543;-64
2022/10/24 09:47:56;;;;;;;5.80;1.90;;;17.50;99.90;;;;;;5097764;28;20880;-63
2022/10/24 09:50:25;;;;;;;7.90;2.57;;;17.30;99.90;;;;;;5095841;28;20434;-63
2022/10/24 09:52:56;;;;;;;3.50;2.60;;;17.20;99.90;;;;;;5098113;28;20457;-64
2022/10/24 09:55:30;;;;;;;10.93;2.97;;;17.20;99.90;;;;;;5096090;28;20461;-64
2022/10/24 09:58:02;;;;;;;7.33;2.87;;;17.10;99.90;;;;;;5098401;28;20494;-64
2022/10/24 10:00:32;;;;;;;4.70;2.57;;;17.00;99.90;;;;;;5097640;28;20471;-64
2022/10/24 10:03:03;;;;;;;10.03;2.20;;;17.00;99.90;;;;;;5098354;28;20900;-64
2022/10/24 10:05:47;;;;;;;9.37;3.00;;;17.00;99.90;;;;;;5098049;28;20466;-63
2022/10/24 10:08:20;;;;;;;5.00;3.17;;;16.90;99.90;;;;;;5096966;28;20479;-64
2022/10/24 10:11:00;;;;;;;8.60;2.77;;;16.90;99.90;;;;;;5095416;28;20539;-63
2022/10/24 10:13:28;;;;;;;8.07;2.60;;;16.90;99.90;;;;;;5096040;28;20431;-63
2022/10/24 10:15:58;;;;;;;5.77;2.37;;;16.90;99.90;;;;;;5097570;28;20940;-63
2022/10/24 10:18:32;;;;;;;4.30;2.30;;;16.90;99.90;;;;;;5095215;28;20485;-64
2022/10/24 10:21:15;;;;;;;7.83;2.50;;;17.00;99.90;;;;;;5096599;28;20461;-63
2022/10/24 10:23:44;;;;;;;7.17;2.80;;;17.00;99.90;;;;;;5097267;28;20524;-63
2022/10/24 10:26:42;;;;;;;3.70;2.57;;;17.10;99.90;;;;;;5096280;28;20468;-63
2022/10/24 10:29:23;;;;;;;7.00;2.80;;;17.20;99.90;;;;;;5095623;28;20455;-64
2022/10/24 10:31:54;;;;;;;8.20;3.10;;;17.40;99.90;;;;;;5093839;28;20465;-64
2022/10/24 10:34:24;;;;;;;7.80;2.60;;;17.40;99.90;;;;;;5097568;28;20460;-64
2022/10/24 10:37:17;;;;;;;7.30;2.70;;;17.40;99.90;;;;;;5096619;28;20463;-64
2022/10/24 10:40:03;;;;;;;6.20;2.77;;;17.60;99.90;;;;;;5097130;28;20463;-64
2022/10/24 10:42:35;;;;;;;5.50;2.43;;;17.60;99.90;;;;;;5094926;28;20483;-64
2022/10/24 10:45:23;;;;;;;7.10;2.40;;;17.70;99.90;;;;;;5093616;28;20756;-64
2022/10/24 10:48:00;;;;;;;5.93;2.60;;;17.70;99.90;;;;;;5096238;28;20918;-64
2022/10/24 10:50:38;;;;;;;7.60;2.80;;;17.70;99.90;;;;;;5091972;28;20464;-64
2022/10/24 10:53:30;;;;;;;5.63;2.53;;;17.80;99.90;;;;;;5093958;28;20576;-65
2022/10/24 10:56:10;;;;;;;5.80;2.60;;;17.90;99.90;;;;;;5096057;28;20464;-66
2022/10/24 10:58:50;;;;;;;4.33;2.77;;;17.80;99.90;;;;;;5094259;28;20504;-65
2022/10/24 11:01:25;;;;;;;5.57;2.40;;;17.90;99.90;;;;;;5095471;28;20476;-65
2022/10/24 11:04:01;;;;;;;6.27;2.27;;;17.80;99.90;;;;;;5095859;28;20897;-65
2022/10/24 11:06:46;;;;;;;9.97;3.27;;;17.70;99.90;;;;;;5094767;28;20464;-65
2022/10/24 11:09:27;;;;;;;6.00;3.43;;;17.70;99.90;;;;;;5055989;28;20465;-64
2022/10/24 11:12:02;;;;;;;9.03;2.80;;;17.70;99.90;;;;;;5056861;28;20468;-66
2022/10/24 11:14:33;;;;;;;8.20;2.80;;;17.60;99.90;;;;;;5057557;28;20439;-66
2022/10/24 11:17:07;;;;;;;10.07;3.40;;;17.70;99.90;;;;;;5056925;28;20462;-66
2022/10/24 11:20:01;;;;;;;5.40;2.40;;;17.90;99.90;;;;;;5057393;28;20922;-66
2022/10/24 11:22:34;;;;;;;7.07;2.40;;;18.00;99.90;;;;;;5056296;28;20956;-66
2022/10/24 11:25:08;;;;;;;5.03;2.17;;;18.00;99.90;;;;;;5053448;28;20909;-66
2022/10/24 11:27:41;;;;;;;4.80;2.60;;;17.90;99.90;;;;;;5054933;28;20462;-64
2022/10/24 11:30:15;;;;;;;11.97;3.30;;;18.00;99.90;;;;;;5053499;28;20469;-64
2022/10/24 11:32:49;;;;;;;7.43;3.30;;;17.80;99.90;;;;;;5052386;28;20450;-64
2022/10/24 11:35:31;;;;;;;3.83;2.30;;;17.70;99.90;;;;;;5054598;28;20461;-65
2022/10/24 11:38:02;;;;;;;6.40;2.67;;;17.50;99.90;;;;;;5052827;28;20462;-65
2022/10/24 11:40:31;;;;;;;3.43;2.10;;;17.50;99.90;;;;;;5055863;28;20466;-65
2022/10/24 11:43:08;;;;;;;6.60;2.53;;;17.50;99.90;;;;;;5052438;28;20462;-65
2022/10/24 11:45:47;;;;;;;8.13;3.20;;;17.50;99.90;;;;;;5053219;28;20462;-65
2022/10/24 11:48:19;;;;;;;6.30;2.70;;;17.50;99.90;;;;;;5052923;28;20454;-65
2022/10/24 11:50:52;;;;;;;5.00;2.67;;;17.50;99.90;;;;;;5053813;28;20455;-65
2022/10/24 11:53:49;;;;;;;5.10;2.60;;;17.40;99.90;;;;;;5054138;28;20481;-65
2022/10/24 11:56:29;;;;;;;6.60;2.30;;;17.40;99.90;;;;;;5049775;28;20466;-65
2022/10/24 11:59:00;;;;;;;7.37;2.40;;;17.40;99.90;;;;;;5053674;28;20490;-65
2022/10/24 12:02:00;;;;;;;8.57;2.30;;;17.30;99.90;;;;;;5054004;28;20458;-64
2022/10/24 12:04:53;;;;;;;6.37;2.40;;;17.40;99.90;;;;;;5043110;28;20500;-65
2022/10/24 12:07:49;;;;;;;5.83;2.87;;;17.30;99.90;;;;;;5065055;28;20496;-65
2022/10/24 12:10:38;;;;;;;4.70;2.20;;;17.20;99.90;;;;;;5094773;28;20466;-65
2022/10/24 12:13:30;;;;;;;6.67;2.67;;;17.10;99.90;;;;;;5093181;28;20452;-64
2022/10/24 12:16:05;;;;;;;4.63;2.23;;;17.10;99.90;;;;;;5092937;28;20455;-64
2022/10/24 12:18:36;;;;;;;8.30;2.83;;;17.10;99.90;;;;;;5092859;28;20506;-64
2022/10/24 12:21:07;;;;;;;5.40;2.83;;;17.10;99.90;;;;;;5094170;28;20840;-64
2022/10/24 12:23:36;;;;;;;8.27;2.53;;;17.20;99.90;;;;;;5095294;28;20896;-64
2022/10/24 12:26:06;;;;;;;4.10;2.27;;;17.30;99.90;;;;;;5095532;28;20448;-64
2022/10/24 12:28:36;;;;;;;7.67;2.90;;;17.50;99.90;;;;;;5098540;28;20868;-65
2022/10/24 12:31:23;;;;;;;5.30;2.63;;;17.80;99.90;;;;;;5099377;28;20509;-67
2022/10/24 12:34:26;;;;;;;7.03;2.20;;;17.80;99.90;;;;;;5100226;28;20542;-67
2022/10/24 12:37:07;;;;;;;6.30;2.80;;;17.70;99.90;;;;;;5099494;28;20451;-65
2022/10/24 12:39:36;;;;;;;8.17;2.80;;;17.70;99.90;;;;;;5098203;28;20556;-65
2022/10/24 12:42:05;;;;;;;12.83;4.37;;;17.60;99.90;;;;;;5098604;28;20464;-65
2022/10/24 12:45:16;;;;;;;6.23;2.97;;;17.30;99.90;;;;;;5096985;28;20888;-68
2022/10/24 12:48:14;;;;;;;6.17;2.50;;;16.80;99.90;;;;;;5098303;28;20452;-65
2022/10/24 12:51:19;;;;;;;6.43;3.20;;;16.50;99.90;;;;;;5100801;28;20764;-65
2022/10/24 12:54:15;;;;;;;6.33;2.63;;;16.40;99.90;;;;;;5098286;28;20768;-65
2022/10/24 12:57:21;;;;;;;10.73;3.90;;;16.20;1.00;;;;;;5078780;28;20513;-67
2022/10/24 12:59:50;;;;;;;6.03;2.60;;;16.20;1.00;;;;;;5095993;28;20491;-66
2022/10/24 13:02:55;;;;;;;5.70;2.73;;;16.30;1.00;;;;;;5098748;28;20464;-66
2022/10/24 13:05:51;;;;;;;8.53;3.17;;;16.50;1.00;;;;;;5055109;28;20463;-66
2022/10/24 13:08:35;;;;;;;9.73;2.93;;;16.50;1.00;;;;;;5097630;28;20940;-65
2022/10/24 13:11:24;;;;;;;9.07;4.03;;;16.50;1.00;;;;;;5098590;28;20472;-65
2022/10/24 13:14:21;;;;;;;9.97;3.50;;;16.50;99.90;;;;;;5087607;28;20513;-65
2022/10/24 13:16:59;;;;;;;8.10;3.23;;;16.60;99.90;;;;;;5097034;28;20453;-66
2022/10/24 13:19:31;;;;;;;8.13;2.60;;;16.80;99.90;;;;;;5096516;28;20488;-65
2022/10/24 13:22:00;;;;;;;9.57;3.03;;;17.00;99.90;;;;;;5095756;28;20515;-65